Cape Med — 3EFC3 — position and weather

sailwx.info

Track history (hours):
 
Tides and Currents Weather Stations Pressure Air Temp Water Temp Dewpoint Dewpoint Depression Visibility Wind Speed Wind Dir Waves Ship Positions

Cape Med

Last reported at 2017-Aug-27 00:08 UTC. Time now 2017-Sep-24 03:36 UTC.
Position N 43°28' W 008°20'.
Warning: this ship's position is 28 days out of date.

Length 290 m; draft 16.8 m.

Type: Cargo ship. MMSI: 371995000.

Date/timePositionNaut miles runAvg speedWind from/ knotsBaromVisibWave heightAir tempDewpointWater temp
2017-Aug-27 00:08N 43°28' W 008°20'0 0.0
2017-Aug-26 23:56N 43°28' W 008°20'0 0.0
2017-Aug-26 23:29N 43°28' W 008°20'  
2017-Aug-21 02:01N 43°25' W 008°45'010.6
2017-Aug-21 02:00N 43°25' W 008°46'510.5
2017-Aug-21 01:29N 43°26' W 008°53'511.2
2017-Aug-21 01:00N 43°29' W 008°59'611.0
2017-Aug-21 00:29N 43°32' W 009°06'610.8
2017-Aug-20 23:56N 43°36' W 009°12'4 5.0
2017-Aug-20 23:10N 43°38' W 009°17'0 1.9
2017-Aug-20 23:01N 43°38' W 009°17'2 1.9
2017-Aug-20 22:05N 43°37' W 009°14'0 1.9
2017-Aug-20 21:53N 43°37' W 009°14'1 1.7
2017-Aug-20 21:29N 43°37' W 009°13'1 1.4
2017-Aug-20 20:59N 43°37' W 009°12'1 1.3
2017-Aug-20 20:26N 43°38' W 009°11'1 1.3
2017-Aug-20 19:59N 43°38' W 009°10'1 1.2
2017-Aug-20 19:29N 43°38' W 009°09'1 1.1
2017-Aug-20 18:59N 43°38' W 009°08'1 1.1
2017-Aug-20 18:29N 43°38' W 009°08'1 1.3
2017-Aug-20 17:59N 43°38' W 009°07'1 1.3
2017-Aug-20 17:29N 43°37' W 009°06'0 1.0
2017-Aug-20 16:59N 43°37' W 009°05'1 1.2
2017-Aug-20 16:30N 43°37' W 009°06'4 7.7
2017-Aug-20 16:00N 43°35' W 009°10'611.5
2017-Aug-20 15:30N 43°32' W 009°17'711.2
2017-Aug-20 14:53N 43°29' W 009°26'3910.5
2017-Aug-20 11:09N 42°53' W 009°47'511.5
2017-Aug-20 10:45N 42°48' W 009°47'4211.3
2017-Aug-20 07:02N 42°06' W 009°54'111.1
2017-Aug-20 06:56N 42°05' W 009°54'511.2
2017-Aug-20 06:30N 42°01' W 009°56'1811.5
2017-Aug-20 04:55N 41°43' W 010°02'3411.6
2017-Aug-20 01:59N 41°11' W 010°17'1311.3
2017-Aug-20 00:52N 40°59' W 010°21'411.2
2017-Aug-20 00:30N 40°55' W 010°23'811.1
2017-Aug-19 23:48N 40°47' W 010°26'1210.8
2017-Aug-19 22:40N 40°36' W 010°30'210.7
2017-Aug-19 22:27N 40°33' W 010°30'510.7
2017-Aug-19 22:00N 40°29' W 010°32'510.5
2017-Aug-19 21:30N 40°24' W 010°34'510.6
2017-Aug-19 21:00N 40°19' W 010°36'510.7
2017-Aug-19 20:30N 40°13' W 010°38'510.8
2017-Aug-19 20:00N 40°08' W 010°40'510.7
2017-Aug-19 19:30N 40°03' W 010°42'510.7
2017-Aug-19 19:00N 39°58' W 010°43'510.6
2017-Aug-19 18:30N 39°53' W 010°45'510.8
2017-Aug-19 18:00N 39°48' W 010°47'611.0
2017-Aug-19 17:30N 39°42' W 010°49'511.0
2017-Aug-19 17:00N 39°37' W 010°51'611.1
2017-Aug-19 16:30N 39°32' W 010°53'511.1
2017-Aug-19 16:00N 39°26' W 010°56'511.0
2017-Aug-19 15:30N 39°21' W 010°58'510.8
2017-Aug-19 15:00N 39°16' W 010°60'1110.9
2017-Aug-19 14:00N 39°05' W 011°03'611.0
2017-Aug-19 13:30N 38°60' W 011°05'510.9
2017-Aug-19 13:00N 38°55' W 011°07'510.9
2017-Aug-19 12:30N 38°49' W 011°08'510.9
2017-Aug-19 12:00N 38°44' W 011°10'510.8
2017-Aug-19 11:30N 38°39' W 011°12'611.0
2017-Aug-19 11:00N 38°34' W 011°14'611.1
2017-Aug-19 10:30N 38°28' W 011°16'611.2
2017-Aug-19 10:00N 38°23' W 011°18'611.3
2017-Aug-19 09:30N 38°18' W 011°20'611.4
2017-Aug-19 09:00N 38°12' W 011°22'611.5
2017-Aug-19 08:30N 38°07' W 011°24'611.6
2017-Aug-19 08:00N 38°01' W 011°26'611.7
2017-Aug-19 07:30N 37°55' W 011°28'611.8
2017-Aug-19 07:00N 37°50' W 011°30'611.8
2017-Aug-19 06:30N 37°44' W 011°32'611.8
2017-Aug-19 06:00N 37°38' W 011°34'611.7
2017-Aug-19 05:30N 37°33' W 011°36'611.7
2017-Aug-19 05:00N 37°27' W 011°38'611.7
2017-Aug-19 04:29N 37°21' W 011°40'711.8
2017-Aug-19 03:55N 37°15' W 011°42'711.5
2017-Aug-19 03:18N 37°08' W 011°45'1311.7
2017-Aug-19 02:09N 36°55' W 011°49'311.9
2017-Aug-19 01:54N 36°52' W 011°50'6511.8
2017-Aug-18 20:22N 35°49' W 012°12'711.4
2017-Aug-18 19:46N 35°43' W 012°14'311.4
2017-Aug-18 19:30N 35°39' W 012°15'611.3
2017-Aug-18 18:58N 35°34' W 012°17'511.3
2017-Aug-18 18:30N 35°29' W 012°19'611.4
2017-Aug-18 18:00N 35°23' W 012°21'611.6
2017-Aug-18 17:30N 35°18' W 012°22'19711.7
2017-Aug-18 00:41N 32°17' W 013°58'7811.5
2017-Aug-17 17:55N 31°07' W 014°36'1411.4
2017-Aug-17 16:40N 30°53' W 014°43'311.2
2017-Aug-17 16:26N 30°51' W 014°44'511.3
2017-Aug-17 16:00N 30°47' W 014°47'2411.6
2017-Aug-17 13:56N 30°25' W 014°59'511.6
2017-Aug-17 13:29N 30°20' W 015°01'511.6
2017-Aug-17 13:00N 30°15' W 015°04'611.7
2017-Aug-17 12:30N 30°10' W 015°07'611.9
2017-Aug-17 12:00N 30°05' W 015°09'711.8
2017-Aug-17 11:25N 29°58' W 015°13'511.9
2017-Aug-17 10:59N 29°54' W 015°15'612.0
2017-Aug-17 10:30N 29°48' W 015°18'711.9
2017-Aug-17 09:53N 29°42' W 015°22'512.0
2017-Aug-17 09:29N 29°37' W 015°24'612.0
2017-Aug-17 09:00N 29°32' W 015°27'612.1
2017-Aug-17 08:30N 29°27' W 015°30'612.1
2017-Aug-17 08:01N 29°21' W 015°33'611.8
2017-Aug-17 07:30N 29°16' W 015°36'611.9
2017-Aug-17 06:59N 29°10' W 015°39'612.0
2017-Aug-17 06:30N 29°05' W 015°41'611.7
2017-Aug-17 06:00N 28°60' W 015°44'611.7
2017-Aug-17 05:30N 28°54' W 015°47'2511.6
2017-Aug-17 03:18N 28°32' W 016°02'310.9
2017-Aug-17 03:00N 28°30' W 016°04'4 7.4
2017-Aug-17 02:30N 28°29' W 016°08'3 5.3
2017-Aug-17 02:00N 28°29' W 016°11'1 1.1
2017-Aug-17 01:30N 28°29' W 016°11'  
Track history (hours):
 
Tides and Currents Weather Stations Pressure Air Temp Water Temp Dewpoint Dewpoint Depression Visibility Wind Speed Wind Dir Waves Ship Positions

Cape Med

Last reported at 2017-Aug-27 00:08 UTC. Time now 2017-Sep-24 03:36 UTC.
Position N 43°28' W 008°20'.
Warning: this ship's position is 28 days out of date.

Length 290 m; draft 16.8 m.

Type: Cargo ship. MMSI: 371995000.

Date/timePositionNaut miles runAvg speedWind from/ knotsBaromVisibWave heightAir tempDewpointWater temp
2017-Aug-27 00:08N 43°28' W 008°20'0 0.0
2017-Aug-26 23:56N 43°28' W 008°20'0 0.0
2017-Aug-26 23:29N 43°28' W 008°20'  
2017-Aug-21 02:01N 43°25' W 008°45'010.6
2017-Aug-21 02:00N 43°25' W 008°46'510.5
2017-Aug-21 01:29N 43°26' W 008°53'511.2
2017-Aug-21 01:00N 43°29' W 008°59'611.0
2017-Aug-21 00:29N 43°32' W 009°06'610.8
2017-Aug-20 23:56N 43°36' W 009°12'4 5.0
2017-Aug-20 23:10N 43°38' W 009°17'0 1.9
2017-Aug-20 23:01N 43°38' W 009°17'2 1.9
2017-Aug-20 22:05N 43°37' W 009°14'0 1.9
2017-Aug-20 21:53N 43°37' W 009°14'1 1.7
2017-Aug-20 21:29N 43°37' W 009°13'1 1.4
2017-Aug-20 20:59N 43°37' W 009°12'1 1.3
2017-Aug-20 20:26N 43°38' W 009°11'1 1.3
2017-Aug-20 19:59N 43°38' W 009°10'1 1.2
2017-Aug-20 19:29N 43°38' W 009°09'1 1.1
2017-Aug-20 18:59N 43°38' W 009°08'1 1.1
2017-Aug-20 18:29N 43°38' W 009°08'1 1.3
2017-Aug-20 17:59N 43°38' W 009°07'1 1.3
2017-Aug-20 17:29N 43°37' W 009°06'0 1.0
2017-Aug-20 16:59N 43°37' W 009°05'1 1.2
2017-Aug-20 16:30N 43°37' W 009°06'4 7.7
2017-Aug-20 16:00N 43°35' W 009°10'611.5
2017-Aug-20 15:30N 43°32' W 009°17'711.2
2017-Aug-20 14:53N 43°29' W 009°26'3910.5
2017-Aug-20 11:09N 42°53' W 009°47'511.5
2017-Aug-20 10:45N 42°48' W 009°47'4211.3
2017-Aug-20 07:02N 42°06' W 009°54'111.1
2017-Aug-20 06:56N 42°05' W 009°54'511.2
2017-Aug-20 06:30N 42°01' W 009°56'1811.5
2017-Aug-20 04:55N 41°43' W 010°02'3411.6
2017-Aug-20 01:59N 41°11' W 010°17'1311.3
2017-Aug-20 00:52N 40°59' W 010°21'411.2
2017-Aug-20 00:30N 40°55' W 010°23'811.1
2017-Aug-19 23:48N 40°47' W 010°26'1210.8
2017-Aug-19 22:40N 40°36' W 010°30'210.7
2017-Aug-19 22:27N 40°33' W 010°30'510.7
2017-Aug-19 22:00N 40°29' W 010°32'510.5
2017-Aug-19 21:30N 40°24' W 010°34'510.6
2017-Aug-19 21:00N 40°19' W 010°36'510.7
2017-Aug-19 20:30N 40°13' W 010°38'510.8
2017-Aug-19 20:00N 40°08' W 010°40'510.7
2017-Aug-19 19:30N 40°03' W 010°42'510.7
2017-Aug-19 19:00N 39°58' W 010°43'510.6
2017-Aug-19 18:30N 39°53' W 010°45'510.8
2017-Aug-19 18:00N 39°48' W 010°47'611.0
2017-Aug-19 17:30N 39°42' W 010°49'511.0
2017-Aug-19 17:00N 39°37' W 010°51'611.1
2017-Aug-19 16:30N 39°32' W 010°53'511.1
2017-Aug-19 16:00N 39°26' W 010°56'511.0
2017-Aug-19 15:30N 39°21' W 010°58'510.8
2017-Aug-19 15:00N 39°16' W 010°60'1110.9
2017-Aug-19 14:00N 39°05' W 011°03'611.0
2017-Aug-19 13:30N 38°60' W 011°05'510.9
2017-Aug-19 13:00N 38°55' W 011°07'510.9
2017-Aug-19 12:30N 38°49' W 011°08'510.9
2017-Aug-19 12:00N 38°44' W 011°10'510.8
2017-Aug-19 11:30N 38°39' W 011°12'611.0
2017-Aug-19 11:00N 38°34' W 011°14'611.1
2017-Aug-19 10:30N 38°28' W 011°16'611.2
2017-Aug-19 10:00N 38°23' W 011°18'611.3
2017-Aug-19 09:30N 38°18' W 011°20'611.4
2017-Aug-19 09:00N 38°12' W 011°22'611.5
2017-Aug-19 08:30N 38°07' W 011°24'611.6
2017-Aug-19 08:00N 38°01' W 011°26'611.7
2017-Aug-19 07:30N 37°55' W 011°28'611.8
2017-Aug-19 07:00N 37°50' W 011°30'611.8
2017-Aug-19 06:30N 37°44' W 011°32'611.8
2017-Aug-19 06:00N 37°38' W 011°34'611.7
2017-Aug-19 05:30N 37°33' W 011°36'611.7
2017-Aug-19 05:00N 37°27' W 011°38'611.7
2017-Aug-19 04:29N 37°21' W 011°40'711.8
2017-Aug-19 03:55N 37°15' W 011°42'711.5
2017-Aug-19 03:18N 37°08' W 011°45'1311.7
2017-Aug-19 02:09N 36°55' W 011°49'311.9
2017-Aug-19 01:54N 36°52' W 011°50'6511.8
2017-Aug-18 20:22N 35°49' W 012°12'711.4
2017-Aug-18 19:46N 35°43' W 012°14'311.4
2017-Aug-18 19:30N 35°39' W 012°15'611.3
2017-Aug-18 18:58N 35°34' W 012°17'511.3
2017-Aug-18 18:30N 35°29' W 012°19'611.4
2017-Aug-18 18:00N 35°23' W 012°21'611.6
2017-Aug-18 17:30N 35°18' W 012°22'19711.7
2017-Aug-18 00:41N 32°17' W 013°58'7811.5
2017-Aug-17 17:55N 31°07' W 014°36'1411.4
2017-Aug-17 16:40N 30°53' W 014°43'311.2
2017-Aug-17 16:26N 30°51' W 014°44'511.3
2017-Aug-17 16:00N 30°47' W 014°47'2411.6
2017-Aug-17 13:56N 30°25' W 014°59'511.6
2017-Aug-17 13:29N 30°20' W 015°01'511.6
2017-Aug-17 13:00N 30°15' W 015°04'611.7
2017-Aug-17 12:30N 30°10' W 015°07'611.9
2017-Aug-17 12:00N 30°05' W 015°09'711.8
2017-Aug-17 11:25N 29°58' W 015°13'511.9
2017-Aug-17 10:59N 29°54' W 015°15'612.0
2017-Aug-17 10:30N 29°48' W 015°18'711.9
2017-Aug-17 09:53N 29°42' W 015°22'512.0
2017-Aug-17 09:29N 29°37' W 015°24'612.0
2017-Aug-17 09:00N 29°32' W 015°27'612.1
2017-Aug-17 08:30N 29°27' W 015°30'612.1
2017-Aug-17 08:01N 29°21' W 015°33'611.8
2017-Aug-17 07:30N 29°16' W 015°36'611.9
2017-Aug-17 06:59N 29°10' W 015°39'612.0
2017-Aug-17 06:30N 29°05' W 015°41'611.7
2017-Aug-17 06:00N 28°60' W 015°44'611.7
2017-Aug-17 05:30N 28°54' W 015°47'2511.6
2017-Aug-17 03:18N 28°32' W 016°02'310.9
2017-Aug-17 03:00N 28°30' W 016°04'4 7.4
2017-Aug-17 02:30N 28°29' W 016°08'3 5.3
2017-Aug-17 02:00N 28°29' W 016°11'1 1.1
2017-Aug-17 01:30N 28°29' W 016°11'  

Dump ship's entire track history